createdAt,value
2024-04-18T00:04:34.294Z,2.22
2024-04-18T00:09:28.680Z,2.55
2024-04-18T00:14:23.147Z,2.67
2024-04-18T00:19:18.073Z,3.13
2024-04-18T00:24:24.774Z,2.72
2024-04-18T00:29:18.634Z,2.67
2024-04-18T00:34:12.368Z,2.50
2024-04-18T00:39:11.855Z,3.15
2024-04-18T00:44:25.643Z,2.85
2024-04-18T00:49:38.418Z,4.00
2024-04-18T00:54:32.909Z,4.07
2024-04-18T00:59:26.712Z,4.40
2024-04-18T01:04:41.936Z,3.65
2024-04-18T01:09:39.438Z,4.93
2024-04-18T01:14:36.914Z,3.63
2024-04-18T01:19:31.278Z,3.13
2024-04-18T01:24:25.893Z,3.78
2024-04-18T01:29:19.919Z,3.78
2024-04-18T01:34:32.804Z,3.65
2024-04-18T01:39:42.874Z,3.50
2024-04-18T01:44:37.117Z,4.82
2024-04-18T01:49:51.222Z,4.85
2024-04-18T01:54:45.526Z,4.20
2024-04-18T01:59:40.144Z,4.20
2024-04-18T02:04:33.941Z,4.22
2024-04-18T02:09:28.153Z,3.85
2024-04-18T02:14:21.804Z,4.13
2024-04-18T02:19:35.950Z,3.70
2024-04-18T02:25:13.610Z,4.07
2024-04-18T02:30:27.953Z,4.35
2024-04-18T02:35:57.555Z,4.88
2024-04-18T02:41:26.368Z,3.40
2024-04-18T02:46:40.352Z,4.00
2024-04-18T02:51:59.898Z,4.35
2024-04-18T02:57:31.524Z,4.75
2024-04-18T03:02:45.925Z,3.95
2024-04-18T03:08:02.674Z,4.80
2024-04-18T03:13:25.420Z,4.88
2024-04-18T03:18:39.480Z,4.65
2024-04-18T03:23:42.321Z,3.65
2024-04-18T03:28:36.666Z,3.90
2024-04-18T03:33:31.270Z,4.20
2024-04-18T03:38:29.647Z,4.65
2024-04-18T03:43:24.027Z,3.90
2024-04-18T03:48:17.938Z,3.33
2024-04-18T03:53:12.426Z,3.78
2024-04-18T03:58:06.717Z,3.45
2024-04-18T04:08:11.316Z,4.07
2024-04-18T04:13:06.008Z,3.50
2024-04-18T04:18:09.492Z,3.42
2024-04-18T04:23:10.121Z,3.80
2024-04-18T04:28:23.425Z,4.85
2024-04-18T04:33:17.448Z,4.05
2024-04-18T04:38:11.528Z,4.72
2024-04-18T04:43:06.065Z,4.45
2024-04-18T04:48:00.611Z,3.83
2024-04-18T04:52:54.604Z,3.72
2024-04-18T04:57:48.837Z,5.13
2024-04-18T05:02:48.740Z,4.65
2024-04-18T05:07:45.894Z,3.80
2024-04-18T05:12:58.420Z,3.78
2024-04-18T05:18:01.849Z,3.72
2024-04-18T05:22:55.429Z,4.00
2024-04-18T05:27:57.769Z,3.22
2024-04-18T05:33:01.133Z,2.97
2024-04-18T05:37:55.636Z,2.58
2024-04-18T05:42:49.718Z,5.60
2024-04-18T05:47:43.696Z,6.43
2024-04-18T05:52:38.101Z,6.80
2024-04-18T06:02:59.027Z,8.65
2024-04-18T06:07:53.989Z,6.72
2024-04-18T06:12:47.749Z,6.13
2024-04-18T06:17:41.472Z,6.85
2024-04-18T06:22:36.321Z,6.30
2024-04-18T06:27:49.694Z,6.80
2024-04-18T06:32:44.324Z,7.78
2024-04-18T06:37:39.027Z,6.70
2024-04-18T06:42:34.381Z,7.63
2024-04-18T06:47:28.197Z,6.63
2024-04-18T06:52:37.464Z,6.10
2024-04-18T06:57:31.637Z,7.00
2024-04-18T07:02:26.197Z,6.22
2024-04-18T07:07:40.014Z,7.07
2024-04-18T07:12:54.035Z,4.50
2024-04-18T07:17:48.196Z,5.32
2024-04-18T07:22:44.205Z,5.18
2024-04-18T07:27:55.735Z,5.55
2024-04-18T07:32:50.031Z,5.90
2024-04-18T07:38:04.639Z,5.65
2024-04-18T07:42:59.260Z,5.03
2024-04-18T07:47:53.240Z,6.10
2024-04-18T07:52:53.222Z,5.80
2024-04-18T07:57:55.590Z,5.40
2024-04-18T08:02:53.453Z,5.95
2024-04-18T08:07:51.452Z,5.88
2024-04-18T08:12:51.323Z,6.32
2024-04-18T08:17:48.670Z,5.70
2024-04-18T08:22:42.838Z,5.55
2024-04-18T08:27:37.669Z,6.65
2024-04-18T08:32:31.550Z,7.10
2024-04-18T08:37:26.056Z,5.43
2024-04-18T08:42:40.160Z,3.70
2024-04-18T08:47:37.023Z,3.10
2024-04-18T08:52:36.578Z,2.08
2024-04-18T08:57:32.345Z,2.35
2024-04-18T09:02:28.177Z,1.92
2024-04-18T09:07:22.443Z,2.25
2024-04-18T09:12:16.728Z,1.95
2024-04-18T09:17:15.149Z,1.48
2024-04-18T09:27:02.369Z,1.30
2024-04-18T09:31:59.112Z,2.03
2024-04-18T09:36:52.907Z,2.17
2024-04-18T09:41:51.310Z,2.10
2024-04-18T09:51:39.556Z,1.98
2024-04-18T09:56:35.795Z,1.48
2024-04-18T10:01:31.434Z,1.42
2024-04-18T10:06:30.896Z,1.50
2024-04-18T10:11:27.255Z,1.45
2024-04-18T10:16:24.327Z,1.98
2024-04-18T10:21:32.246Z,1.10
2024-04-18T10:26:35.122Z,1.10
2024-04-18T10:31:30.486Z,1.00
2024-04-18T10:36:26.138Z,1.00
2024-04-18T10:41:24.158Z,1.10
2024-04-18T10:46:20.175Z,1.00
2024-04-18T10:51:14.683Z,1.40
2024-04-18T10:56:09.006Z,1.00
2024-04-18T11:01:06.425Z,1.13
2024-04-18T11:06:02.442Z,1.00
2024-04-18T11:10:56.823Z,1.15
2024-04-18T11:15:50.806Z,1.00
2024-04-18T11:20:46.032Z,0.77
2024-04-18T11:25:40.302Z,1.00
2024-04-18T11:30:33.686Z,0.95
2024-04-18T11:35:29.000Z,0.90
2024-04-18T11:40:23.579Z,1.00
2024-04-18T11:45:18.256Z,1.08
2024-04-18T11:50:12.912Z,0.90
2024-04-18T11:55:07.597Z,0.75
2024-04-18T12:00:04.771Z,1.00
2024-04-18T12:05:19.348Z,1.08
2024-04-18T12:10:16.086Z,0.88
2024-04-18T12:15:11.961Z,0.80
2024-04-18T12:20:07.502Z,0.88
2024-04-18T12:25:05.948Z,0.90
2024-04-18T12:30:01.407Z,0.82
2024-04-18T12:34:55.194Z,0.80
2024-04-18T12:39:50.439Z,0.80
2024-04-18T12:44:53.462Z,0.80
2024-04-18T12:49:48.275Z,0.90
2024-04-18T12:54:42.933Z,1.40
2024-04-18T12:59:49.481Z,1.02
2024-04-18T13:04:52.302Z,0.82
2024-04-18T13:09:48.374Z,0.88
2024-04-18T13:14:42.738Z,1.00
2024-04-18T13:19:36.371Z,1.30
2024-04-18T13:24:36.997Z,1.55
2024-04-18T13:29:51.005Z,1.13
2024-04-18T13:34:59.947Z,0.90
2024-04-18T13:39:59.304Z,1.42
2024-04-18T13:44:54.620Z,1.35
2024-04-18T13:49:48.788Z,1.10
2024-04-18T13:54:43.288Z,1.40
2024-04-18T13:59:57.913Z,1.15
2024-04-18T14:05:09.691Z,1.40
2024-04-18T14:10:23.725Z,1.10
2024-04-18T14:15:40.194Z,1.20
2024-04-18T14:20:54.575Z,1.40
2024-04-18T14:25:49.072Z,1.50
2024-04-18T14:30:43.298Z,1.55
2024-04-18T14:35:37.395Z,1.40
2024-04-18T14:40:31.719Z,1.70
2024-04-18T14:45:26.198Z,1.85
2024-04-18T14:50:20.563Z,2.80
2024-04-18T14:55:15.364Z,3.72
2024-04-18T15:00:12.744Z,2.10
2024-04-18T15:05:08.040Z,2.42
2024-04-18T15:10:24.179Z,2.58
2024-04-18T15:15:24.040Z,2.30
2024-04-18T15:20:17.974Z,2.45
2024-04-18T15:25:31.997Z,2.20
2024-04-18T15:30:26.184Z,2.63
2024-04-18T15:35:20.272Z,3.00
2024-04-18T15:40:32.549Z,2.50
2024-04-18T15:45:34.013Z,2.55
2024-04-18T15:50:46.831Z,3.50
2024-04-18T15:55:55.781Z,2.10
2024-04-18T16:00:55.265Z,2.60
2024-04-18T16:05:59.958Z,2.83
2024-04-18T16:11:09.017Z,1.80
2024-04-18T16:16:20.860Z,2.17
2024-04-18T16:21:15.046Z,1.55
2024-04-18T16:26:09.046Z,1.63
2024-04-18T16:31:03.396Z,1.60
2024-04-18T16:35:57.581Z,2.00
2024-04-18T16:40:55.442Z,3.53
2024-04-18T16:45:58.306Z,5.63
2024-04-18T16:50:52.338Z,10.02
2024-04-18T16:55:46.170Z,2.80
2024-04-18T17:00:43.292Z,4.60
2024-04-18T17:05:41.268Z,4.68
2024-04-18T17:10:35.415Z,3.92
2024-04-18T17:15:47.848Z,4.22
2024-04-18T17:20:44.065Z,4.65
2024-04-18T17:25:39.403Z,6.10
2024-04-18T17:30:32.842Z,7.13
2024-04-18T17:35:27.164Z,12.55
2024-04-18T17:40:37.715Z,7.18
2024-04-18T17:45:32.883Z,5.70
2024-04-18T17:50:41.915Z,6.17
2024-04-18T17:55:36.475Z,5.05
2024-04-18T18:00:30.588Z,9.98
2024-04-18T18:05:24.751Z,8.63
2024-04-18T18:10:19.314Z,7.35
2024-04-18T18:15:33.367Z,6.63
2024-04-18T18:20:27.675Z,6.38
2024-04-18T18:25:21.531Z,4.15
2024-04-18T18:30:17.211Z,8.50
2024-04-18T18:35:10.920Z,7.38
2024-04-18T18:40:04.895Z,6.57
2024-04-18T18:44:59.140Z,6.30
2024-04-18T18:49:52.801Z,7.43
2024-04-18T18:54:47.246Z,6.75
2024-04-18T18:59:44.666Z,7.18
2024-04-18T19:04:38.894Z,5.70
2024-04-18T19:09:36.057Z,5.20
2024-04-18T19:14:30.226Z,5.18
2024-04-18T19:19:34.889Z,5.53
2024-04-18T19:24:29.320Z,5.25
2024-04-18T19:29:32.068Z,5.20
2024-04-18T19:34:34.476Z,5.40
2024-04-18T19:39:28.194Z,5.35
2024-04-18T19:44:25.529Z,6.15
2024-04-18T19:49:19.371Z,6.45
2024-04-18T19:54:22.567Z,6.63
2024-04-18T19:59:16.212Z,5.93
2024-04-18T20:04:10.724Z,5.95
2024-04-18T20:09:04.378Z,5.18
2024-04-18T20:13:58.463Z,4.00
2024-04-18T20:18:52.726Z,4.10
2024-04-18T20:23:47.280Z,4.07
2024-04-18T20:28:42.086Z,4.13
2024-04-18T20:33:40.662Z,3.55
2024-04-18T20:38:35.043Z,3.25
2024-04-18T20:43:30.062Z,3.42
2024-04-18T20:48:23.964Z,4.03
2024-04-18T20:53:17.964Z,3.50
2024-04-18T20:58:11.655Z,3.90
2024-04-18T21:03:05.367Z,4.97
2024-04-18T21:08:00.064Z,4.10
2024-04-18T21:12:53.354Z,4.50
2024-04-18T21:17:47.874Z,4.95
2024-04-18T21:22:42.400Z,4.07
2024-04-18T21:27:41.425Z,4.20
2024-04-18T21:32:35.888Z,4.18
2024-04-18T21:37:30.662Z,3.88
2024-04-18T21:42:23.904Z,3.80
2024-04-18T21:47:17.888Z,4.32
2024-04-18T21:52:13.097Z,3.95
2024-04-18T21:57:08.036Z,4.50
2024-04-18T22:02:02.153Z,4.60
2024-04-18T22:06:56.780Z,5.22
2024-04-18T22:11:51.242Z,4.30
2024-04-18T22:16:45.560Z,4.70
2024-04-18T22:21:40.397Z,4.90
2024-04-18T22:26:35.387Z,4.70
2024-04-18T22:31:29.184Z,5.30
2024-04-18T22:36:23.173Z,5.65
2024-04-18T22:41:22.361Z,4.90
2024-04-18T22:46:16.931Z,4.65
2024-04-18T22:51:11.364Z,4.55
2024-04-18T22:56:03.860Z,4.18
2024-04-18T23:00:57.459Z,4.75
2024-04-18T23:05:51.863Z,4.00
2024-04-18T23:11:06.313Z,3.65
2024-04-18T23:16:00.502Z,4.10
2024-04-18T23:20:56.248Z,3.50
2024-04-18T23:26:00.050Z,3.85
2024-04-18T23:30:54.723Z,4.00
2024-04-18T23:35:49.310Z,3.72
2024-04-18T23:40:43.625Z,3.75
2024-04-18T23:45:37.374Z,3.80
2024-04-18T23:50:31.575Z,3.78
2024-04-18T23:55:25.808Z,4.15
